Terminal Aerodrome Forecast
Issued by NWS

Home | Current Version | Previous Version | Text Only | Print | Product List | Glossary On
Versions: 1 2 3 4 5 6 7 8 9 10 11 12
727
FTUS44 KEPZ 230524
TAFLRU
TAF
KLRU 230524Z 2306/2406 VRB03KT P6SM FEW250
     FM231600 05004KT P6SM FEW250
     FM232200 21005KT P6SM FEW250=

USA.gov is the U.S. government's official web portal to all federal, state and local government web resources and services.